createdAt,value
2018-05-14T00:00:08.664Z,77.57
2018-05-14T00:01:17.309Z,77.95
2018-05-14T00:02:26.229Z,78.34
2018-05-14T00:03:34.875Z,78.34
2018-05-14T00:04:43.805Z,78.05
2018-05-14T00:05:52.448Z,77.95
2018-05-14T00:07:01.102Z,79
2018-05-14T00:08:09.742Z,79.49
2018-05-14T00:09:18.392Z,79.33
2018-05-14T00:10:27.312Z,79.81
2018-05-14T00:11:35.962Z,80.54
2018-05-14T00:12:44.607Z,80.44
2018-05-14T00:13:53.259Z,81.02
2018-05-14T00:15:01.902Z,81.02
2018-05-14T00:16:10.545Z,81.05
2018-05-14T00:17:19.459Z,81.25
2018-05-14T00:18:28.105Z,80.35
2018-05-14T00:19:36.752Z,79.62
2018-05-14T00:20:45.393Z,80.35
2018-05-14T00:21:54.042Z,80.92
2018-05-14T00:23:02.686Z,81.11
2018-05-14T00:24:11.333Z,81.63
2018-05-14T00:25:19.972Z,81.3
2018-05-14T00:26:28.624Z,81.3
2018-05-14T00:27:37.266Z,81.63
2018-05-14T00:28:45.913Z,81.88
2018-05-14T00:29:54.552Z,81.97
2018-05-14T00:31:03.469Z,82.17
2018-05-14T00:32:12.116Z,82.45
2018-05-14T00:33:20.766Z,82.17
2018-05-14T00:34:29.409Z,81.05
2018-05-14T00:35:38.057Z,81.44
2018-05-14T00:36:46.701Z,82.01
2018-05-14T00:37:55.345Z,82.01
2018-05-14T00:39:03.995Z,81.49
2018-05-14T00:40:12.636Z,81.59
2018-05-14T00:41:21.284Z,81.49
2018-05-14T00:42:29.936Z,83.4
2018-05-14T00:43:38.847Z,81.82
2018-05-14T00:44:47.488Z,81.88
2018-05-14T00:45:56.135Z,81.54
2018-05-14T00:47:04.781Z,80.87
2018-05-14T00:48:13.427Z,80.87
2018-05-14T00:49:22.125Z,81.44
2018-05-14T00:50:30.786Z,80.87
2018-05-14T00:51:39.356Z,81.44
2018-05-14T00:52:47.998Z,81.34
2018-05-14T00:53:56.650Z,81.44
2018-05-14T00:55:05.293Z,81.63
2018-05-14T00:56:13.939Z,81.15
2018-05-14T00:57:22.579Z,80.54
2018-05-14T00:58:31.233Z,80.38
2018-05-14T00:59:40.144Z,80.19
2018-05-14T01:00:48.789Z,80.82
2018-05-14T01:01:57.430Z,80.77
2018-05-14T01:03:06.078Z,80.48
2018-05-14T01:04:14.722Z,81.15
2018-05-14T01:05:23.370Z,80.48
2018-05-14T01:06:32.031Z,80
2018-05-14T01:07:40.657Z,80.87
2018-05-14T01:08:49.572Z,81.05
2018-05-14T01:09:58.220Z,80.29
2018-05-14T01:11:06.869Z,80.16
2018-05-14T01:12:15.508Z,79.81
2018-05-14T01:13:24.419Z,79.62
2018-05-14T01:14:33.340Z,80.1
2018-05-14T01:15:42.261Z,79.81
2018-05-14T01:16:51.165Z,79.81
2018-05-14T01:17:59.809Z,80.1
2018-05-14T01:19:08.456Z,80.38
2018-05-14T01:20:17.104Z,79.62
2018-05-14T01:21:25.746Z,79.91
2018-05-14T01:22:34.397Z,80.58
2018-05-14T01:23:43.042Z,80.19
2018-05-14T01:24:51.692Z,80.44
2018-05-14T01:26:00.338Z,80.38
2018-05-14T01:27:09.248Z,80.58
2018-05-14T01:28:18.158Z,80.58
2018-05-14T01:29:26.823Z,80.58
2018-05-14T01:30:35.448Z,80.58
2018-05-14T01:31:44.355Z,80.48
2018-05-14T01:32:53.001Z,80.67
2018-05-14T01:34:01.642Z,80.58
2018-05-14T01:35:10.290Z,80.87
2018-05-14T01:36:18.936Z,80.96
2018-05-14T01:37:27.583Z,80.87
2018-05-14T01:38:36.222Z,81.25
2018-05-14T01:39:44.892Z,81.15
2018-05-14T01:40:53.519Z,81.15
2018-05-14T01:42:02.167Z,80.87
2018-05-14T01:43:10.808Z,80.87
2018-05-14T01:44:19.459Z,80.87
2018-05-14T01:45:28.106Z,80.67
2018-05-14T01:46:36.753Z,80.67
2018-05-14T01:47:45.405Z,80.77
2018-05-14T01:48:54.315Z,80.58
2018-05-14T01:50:02.952Z,80.1
2018-05-14T01:51:11.617Z,80.19
2018-05-14T01:52:20.605Z,80.96
2018-05-14T01:53:29.171Z,80.48
2018-05-14T01:54:37.821Z,80.29
2018-05-14T01:55:46.469Z,80.48
2018-05-14T01:56:55.120Z,80.58
2018-05-14T01:58:03.760Z,80.48
2018-05-14T01:59:12.669Z,80.67
2018-05-14T02:00:21.311Z,80.67
2018-05-14T02:01:29.966Z,80.67
2018-05-14T02:02:38.614Z,80.87
2018-05-14T02:03:47.253Z,80.58
2018-05-14T02:04:55.897Z,80.87
2018-05-14T02:06:04.542Z,80.77
2018-05-14T02:07:13.195Z,80.77
2018-05-14T02:08:21.837Z,80.77
2018-05-14T02:09:30.758Z,80.96
2018-05-14T02:10:39.391Z,80.67
2018-05-14T02:11:48.049Z,80.77
2018-05-14T02:12:56.687Z,80.96
2018-05-14T02:14:05.338Z,81.05
2018-05-14T02:15:14.241Z,80.87
2018-05-14T02:16:22.898Z,80.58
2018-05-14T02:17:31.800Z,80.58
2018-05-14T02:18:40.447Z,80.58
2018-05-14T02:19:49.083Z,80.58
2018-05-14T02:20:57.730Z,81.25
2018-05-14T02:22:06.382Z,81.15
2018-05-14T02:23:15.036Z,81.34
2018-05-14T02:24:23.683Z,81.44
2018-05-14T02:25:32.584Z,81.25
2018-05-14T02:26:41.232Z,81.05
2018-05-14T02:27:49.871Z,81.44
2018-05-14T02:28:58.529Z,81.44
2018-05-14T02:30:07.163Z,81.34
2018-05-14T02:31:16.181Z,81.34
2018-05-14T02:32:25.094Z,81.63
2018-05-14T02:33:33.752Z,81.73
2018-05-14T02:34:42.386Z,81.63
2018-05-14T02:35:51.039Z,81.63
2018-05-14T02:36:59.684Z,81.63
2018-05-14T02:38:08.608Z,81.82
2018-05-14T02:39:17.525Z,81.63
2018-05-14T02:40:26.439Z,81.54
2018-05-14T02:41:35.616Z,81.63
2018-05-14T02:42:44.262Z,82.11
2018-05-14T02:43:52.939Z,82.11
2018-05-14T02:45:01.567Z,81.73
2018-05-14T02:46:10.480Z,81.63
2018-05-14T02:47:19.422Z,82.11
2018-05-14T02:48:28.079Z,82.2
2018-05-14T02:49:36.725Z,81.54
2018-05-14T02:50:45.654Z,82.01
2018-05-14T02:51:54.309Z,81.44
2018-05-14T02:53:03.483Z,82.11
2018-05-14T02:54:12.136Z,81.49
2018-05-14T02:55:20.789Z,81.82
2018-05-14T02:56:29.714Z,82.17
2018-05-14T02:57:38.461Z,82.11
2018-05-14T02:58:47.002Z,81.88
2018-05-14T02:59:55.649Z,81.97
2018-05-14T03:01:04.293Z,82.17
2018-05-14T03:02:13.485Z,81.97
2018-05-14T03:03:22.392Z,81.97
2018-05-14T03:04:31.307Z,82.17
2018-05-14T03:05:40.209Z,81.97
2018-05-14T03:06:49.283Z,82.2
2018-05-14T03:07:58.130Z,81.97
2018-05-14T03:09:07.045Z,82.17
2018-05-14T03:10:15.831Z,81.88
2018-05-14T03:11:24.636Z,82.07
2018-05-14T03:12:33.286Z,81.59
2018-05-14T03:13:41.937Z,81.78
2018-05-14T03:14:50.575Z,81.59
2018-05-14T03:15:59.224Z,81.59
2018-05-14T03:17:07.886Z,82.17
2018-05-14T03:18:16.533Z,82.07
2018-05-14T03:19:25.181Z,82.07
2018-05-14T03:20:33.816Z,82.07
2018-05-14T03:21:42.464Z,82.26
2018-05-14T03:22:51.107Z,82.07
2018-05-14T03:23:59.759Z,82.17
2018-05-14T03:25:08.663Z,81.88
2018-05-14T03:26:17.308Z,81.78
2018-05-14T03:27:25.950Z,81.78
2018-05-14T03:28:34.604Z,81.78
2018-05-14T03:29:43.240Z,81.88
2018-05-14T03:30:52.151Z,81.68
2018-05-14T03:32:00.799Z,81.88
2018-05-14T03:33:09.454Z,81.59
2018-05-14T03:34:18.100Z,81.88
2018-05-14T03:35:26.739Z,82.64
2018-05-14T03:36:35.665Z,81.78
2018-05-14T03:37:44.567Z,81.97
2018-05-14T03:38:53.221Z,81.88
2018-05-14T03:40:01.865Z,82.07
2018-05-14T03:41:10.510Z,81.68
2018-05-14T03:42:19.144Z,82.07
2018-05-14T03:43:27.803Z,81.97
2018-05-14T03:44:36.440Z,81.68
2018-05-14T03:45:45.355Z,82.17
2018-05-14T03:46:53.988Z,82.07
2018-05-14T03:48:02.649Z,81.68
2018-05-14T03:49:11.291Z,82.17
2018-05-14T03:50:19.935Z,81.78
2018-05-14T03:51:28.574Z,81.59
2018-05-14T03:52:37.494Z,81.68
2018-05-14T03:53:46.139Z,81.11
2018-05-14T03:54:54.783Z,81.02
2018-05-14T03:56:03.433Z,81.21
2018-05-14T03:57:12.071Z,81.49
2018-05-14T03:58:20.718Z,80.92
2018-05-14T03:59:29.369Z,81.21
2018-05-14T04:00:38.023Z,81.11
2018-05-14T04:01:46.665Z,81.02
2018-05-14T04:02:55.317Z,81.11
2018-05-14T04:04:03.956Z,81.59
2018-05-14T04:05:12.605Z,81.02
2018-05-14T04:06:21.247Z,81.11
2018-05-14T04:07:29.900Z,81.21
2018-05-14T04:08:38.543Z,81.68
2018-05-14T04:09:47.192Z,81.4
2018-05-14T04:10:55.837Z,81.59
2018-05-14T04:12:04.754Z,82.07
2018-05-14T04:13:13.398Z,81.68
2018-05-14T04:14:22.040Z,81.68
2018-05-14T04:15:30.955Z,81.88
2018-05-14T04:16:39.680Z,82.35
2018-05-14T04:17:48.247Z,82.35
2018-05-14T04:18:57.151Z,82.54
2018-05-14T04:20:05.804Z,82.83
2018-05-14T04:21:14.447Z,82.74
2018-05-14T04:22:23.093Z,82.74
2018-05-14T04:23:31.734Z,83.31
2018-05-14T04:24:40.385Z,82.93
2018-05-14T04:25:49.027Z,82.64
2018-05-14T04:26:57.674Z,83.6
2018-05-14T04:28:06.313Z,83.79
2018-05-14T04:29:14.961Z,84.08
2018-05-14T04:30:23.875Z,84.27
2018-05-14T04:31:32.526Z,84.36
2018-05-14T04:32:41.174Z,84.84
2018-05-14T04:33:49.820Z,85.22
2018-05-14T04:34:58.465Z,85.32
2018-05-14T04:36:07.108Z,85.51
2018-05-14T04:37:15.758Z,85.51
2018-05-14T04:38:24.398Z,86.08
2018-05-14T04:39:33.309Z,85.89
2018-05-14T04:40:41.955Z,85.71
2018-05-14T04:41:50.606Z,86.76
2018-05-14T04:42:59.247Z,87.33
2018-05-14T04:44:07.914Z,87.14
2018-05-14T04:45:16.556Z,87.14
2018-05-14T04:46:25.205Z,88.38
2018-05-14T04:47:33.849Z,88.57
2018-05-14T04:48:42.495Z,89.53
2018-05-14T04:49:51.143Z,90.01
2018-05-14T04:50:59.789Z,90.3
2018-05-14T04:52:08.426Z,91.06
2018-05-14T04:53:17.348Z,90.96
2018-05-14T04:54:25.988Z,91.25
2018-05-14T04:55:34.643Z,91.16
2018-05-14T04:56:43.542Z,90.77
2018-05-14T04:57:52.193Z,91.06
2018-05-14T04:59:00.835Z,90.96
2018-05-14T05:00:09.488Z,90.77
2018-05-14T05:01:18.124Z,90.77
2018-05-14T05:02:26.777Z,90.87
2018-05-14T05:03:35.416Z,91.73
2018-05-14T05:04:44.070Z,91.53
2018-05-14T05:05:52.976Z,91.68
2018-05-14T05:07:01.616Z,91.58
2018-05-14T05:08:10.258Z,91.53
2018-05-14T05:09:18.904Z,91.68
2018-05-14T05:10:27.594Z,91.87
2018-05-14T05:11:36.271Z,92.44
2018-05-14T05:12:44.848Z,92.25
2018-05-14T05:13:53.486Z,93.21
2018-05-14T05:15:02.405Z,93.3
2018-05-14T05:16:11.046Z,92.73
2018-05-14T05:17:19.698Z,92.63
2018-05-14T05:18:28.332Z,92.92
2018-05-14T05:19:36.991Z,93.12
2018-05-14T05:20:45.895Z,93.3
2018-05-14T05:21:54.544Z,93.21
2018-05-14T05:23:03.182Z,93.79
2018-05-14T05:24:11.831Z,93.98
2018-05-14T05:25:20.482Z,94.45
2018-05-14T05:26:29.134Z,94.36
2018-05-14T05:27:38.047Z,95.89
2018-05-14T05:28:46.950Z,95.98
2018-05-14T05:29:55.870Z,96.27
2018-05-14T05:31:04.779Z,95.89
2018-05-14T05:32:13.440Z,96.37
2018-05-14T05:33:22.071Z,96.27
2018-05-14T05:34:30.827Z,96.47
2018-05-14T05:35:39.364Z,96.37
2018-05-14T05:36:48.016Z,96.27
2018-05-14T05:37:56.688Z,96.27
2018-05-14T05:39:05.569Z,96.66
2018-05-14T05:40:14.473Z,96.18
2018-05-14T05:41:23.399Z,96.08
2018-05-14T05:42:32.043Z,95.98
2018-05-14T05:43:40.949Z,96.37
2018-05-14T05:44:49.593Z,96.37
2018-05-14T05:45:58.238Z,97.33
2018-05-14T05:47:06.886Z,97.04
2018-05-14T05:48:15.531Z,96.84
2018-05-14T05:49:24.178Z,96.84
2018-05-14T05:50:32.824Z,97.18
2018-05-14T05:51:41.475Z,96.89
2018-05-14T05:52:50.386Z,97.18
2018-05-14T05:53:59.293Z,97.47
2018-05-14T05:55:07.940Z,97.75
2018-05-14T05:56:16.853Z,98.52
2018-05-14T05:57:25.497Z,98.05
2018-05-14T05:58:34.149Z,98.24
2018-05-14T05:59:43.328Z,98.47
2018-05-14T06:00:51.975Z,98.19
2018-05-14T06:02:00.885Z,98
2018-05-14T06:03:09.536Z,98.1
2018-05-14T06:04:18.197Z,98.96
2018-05-14T06:05:26.917Z,99.05
2018-05-14T06:06:35.488Z,98.86
2018-05-14T06:07:44.132Z,99.99
2018-05-14T06:08:52.782Z,99.67
2018-05-14T06:10:01.429Z,99.77
2018-05-14T06:11:10.338Z,99.77
2018-05-14T06:12:18.986Z,99.99
2018-05-14T06:13:27.638Z,99.99
2018-05-14T06:14:36.279Z,99.99
2018-05-14T06:15:44.925Z,99.99
2018-05-14T06:16:53.575Z,99.99
2018-05-14T06:18:02.224Z,99.99
2018-05-14T06:19:10.868Z,99.99
2018-05-14T06:20:20.042Z,99.99
2018-05-14T06:21:28.954Z,99.99
2018-05-14T06:22:37.599Z,99.99
2018-05-14T06:23:46.248Z,99.99
2018-05-14T06:24:55.169Z,99.99
2018-05-14T06:26:03.815Z,99.99
2018-05-14T06:27:12.456Z,99.99
2018-05-14T06:28:21.105Z,99.99
2018-05-14T06:29:29.751Z,99.99
2018-05-14T06:30:38.399Z,99.99
2018-05-14T06:31:47.041Z,99.99
2018-05-14T06:32:55.691Z,99.99
2018-05-14T06:34:04.601Z,99.99
2018-05-14T06:35:13.251Z,99.99
2018-05-14T06:36:22.168Z,99.99
2018-05-14T06:37:30.817Z,99.99
2018-05-14T06:38:39.464Z,99.99
2018-05-14T06:39:48.109Z,99.99
2018-05-14T06:40:56.756Z,99.99
2018-05-14T06:42:05.399Z,99.99
2018-05-14T06:43:14.049Z,99.99
2018-05-14T06:44:22.709Z,99.99
2018-05-14T06:45:31.630Z,99.99
2018-05-14T06:46:40.277Z,99.53
2018-05-14T06:47:48.923Z,99.58
2018-05-14T06:48:57.568Z,99.34
2018-05-14T06:50:06.211Z,99
2018-05-14T06:51:14.865Z,99.99
2018-05-14T06:52:23.510Z,99.43
2018-05-14T06:53:32.426Z,99.63
2018-05-14T06:54:41.067Z,99.43
2018-05-14T06:55:49.714Z,99.53
2018-05-14T06:56:58.361Z,99.24
2018-05-14T06:58:07.013Z,98.57
2018-05-14T06:59:15.660Z,98.47
2018-05-14T07:00:24.299Z,99.24
2018-05-14T07:01:32.952Z,99.24
2018-05-14T07:02:41.602Z,99.72
2018-05-14T07:03:50.287Z,99.34
2018-05-14T07:04:59.201Z,99.53
2018-05-14T07:06:07.853Z,99.53
2018-05-14T07:07:16.500Z,99.15
2018-05-14T07:08:25.152Z,99.05
2018-05-14T07:09:33.794Z,98.38
2018-05-14T07:10:42.450Z,98.76
2018-05-14T07:11:51.359Z,98.86
2018-05-14T07:13:00.010Z,99.05
2018-05-14T07:14:08.665Z,98.86
2018-05-14T07:15:17.317Z,99.1
2018-05-14T07:16:25.996Z,98.91
2018-05-14T07:17:34.661Z,98.57
2018-05-14T07:18:43.333Z,98.62
2018-05-14T07:19:51.980Z,98.81
2018-05-14T07:21:00.893Z,98.33
2018-05-14T07:22:09.539Z,98.14
2018-05-14T07:23:18.294Z,98.05
2018-05-14T07:24:27.598Z,97.95
2018-05-14T07:25:36.551Z,98.33
2018-05-14T07:26:45.242Z,97.66
2018-05-14T07:27:54.535Z,98.43
2018-05-14T07:29:03.276Z,98.14
2018-05-14T07:30:12.079Z,97.85
2018-05-14T07:31:21.118Z,97.85
2018-05-14T07:32:29.888Z,98.19
2018-05-14T07:33:39.174Z,98.1
2018-05-14T07:34:47.830Z,98.19
2018-05-14T07:35:56.777Z,97.81
2018-05-14T07:37:05.421Z,97.52
2018-05-14T07:38:14.337Z,98
2018-05-14T07:39:22.984Z,98
2018-05-14T07:40:31.665Z,97.52
2018-05-14T07:41:40.981Z,96.85
2018-05-14T07:42:50.149Z,96.94
2018-05-14T07:43:58.821Z,97.52
2018-05-14T07:45:07.731Z,97.52
2018-05-14T07:46:16.904Z,97.33
2018-05-14T07:47:25.660Z,96.94
2018-05-14T07:48:34.881Z,96.47
2018-05-14T07:49:43.838Z,96.47
2018-05-14T07:50:52.486Z,96.75
2018-05-14T07:52:01.265Z,96.18
2018-05-14T07:53:10.255Z,96.13
2018-05-14T07:54:19.283Z,94.98
2018-05-14T07:55:28.321Z,94.88
2018-05-14T07:56:37.226Z,94.98
2018-05-14T07:57:45.877Z,95.07
2018-05-14T07:58:54.788Z,95.07
2018-05-14T08:00:03.444Z,95.17
2018-05-14T08:01:12.089Z,94.98
2018-05-14T08:02:20.741Z,95.75
2018-05-14T08:03:29.648Z,95.07
2018-05-14T08:04:38.306Z,94.98
2018-05-14T08:05:46.974Z,94.31
2018-05-14T08:06:55.604Z,93.54
2018-05-14T08:08:04.243Z,92.96
2018-05-14T08:09:13.176Z,93.01
2018-05-14T08:10:21.838Z,93.3
2018-05-14T08:11:30.756Z,93.59
2018-05-14T08:12:39.800Z,92.14
2018-05-14T08:13:48.439Z,91.86
2018-05-14T08:14:57.091Z,91.47
2018-05-14T08:16:05.734Z,93.39
2018-05-14T08:17:14.396Z,92.33
2018-05-14T08:18:23.033Z,92.82
2018-05-14T08:19:31.687Z,93.1
2018-05-14T08:20:40.331Z,93.49
2018-05-14T08:21:48.987Z,94.07
2018-05-14T08:22:57.628Z,93.97
2018-05-14T08:24:06.286Z,94.83
2018-05-14T08:25:14.933Z,94.49
2018-05-14T08:26:23.590Z,93.87
2018-05-14T08:27:32.236Z,94.59
2018-05-14T08:28:40.878Z,94.49
2018-05-14T08:29:49.529Z,93.82
2018-05-14T08:30:58.170Z,92.29
2018-05-14T08:32:06.848Z,92.57
2018-05-14T08:33:15.490Z,92.77
2018-05-14T08:34:24.144Z,93.25
2018-05-14T08:35:32.784Z,91.71
2018-05-14T08:36:41.443Z,92.29
2018-05-14T08:37:50.088Z,92.29
2018-05-14T08:38:59.006Z,92
2018-05-14T08:40:07.913Z,90.94
2018-05-14T08:41:16.570Z,90.27
2018-05-14T08:42:25.548Z,89.98
2018-05-14T08:43:34.197Z,89.4
2018-05-14T08:44:43.104Z,89.16
2018-05-14T08:45:51.756Z,89.93
2018-05-14T08:47:00.403Z,89.36
2018-05-14T08:48:09.059Z,89.45
2018-05-14T08:49:17.709Z,91.08
2018-05-14T08:50:26.348Z,89.93
2018-05-14T08:51:35.068Z,91.18
2018-05-14T08:52:43.649Z,91.47
2018-05-14T08:53:52.631Z,91.47
2018-05-14T08:55:01.275Z,92.43
2018-05-14T08:56:09.925Z,89.07
2018-05-14T08:57:18.576Z,87.34
2018-05-14T08:58:27.228Z,87.76
2018-05-14T08:59:35.873Z,87.19
2018-05-14T09:00:44.611Z,87.76
2018-05-14T09:01:53.170Z,88.53
2018-05-14T09:03:01.826Z,89.59
2018-05-14T09:04:10.474Z,90.45
2018-05-14T09:05:19.135Z,91.13
2018-05-14T09:06:28.052Z,90.45
2018-05-14T09:07:36.702Z,85.69
2018-05-14T09:08:45.748Z,86.13
2018-05-14T09:09:54.308Z,87.96
2018-05-14T09:11:02.955Z,86.99
2018-05-14T09:12:11.604Z,87.23
2018-05-14T09:13:20.252Z,88.39
2018-05-14T09:14:28.903Z,88.67
2018-05-14T09:15:37.559Z,89.35
2018-05-14T09:16:46.204Z,87.33
2018-05-14T09:17:54.856Z,87.23
2018-05-14T09:19:03.777Z,88.57
2018-05-14T09:20:12.429Z,86.27
2018-05-14T09:21:21.073Z,87.42
2018-05-14T09:22:29.725Z,86.65
2018-05-14T09:23:38.367Z,85.69
2018-05-14T09:24:47.019Z,85.98
2018-05-14T09:25:55.675Z,85.16
2018-05-14T09:27:04.590Z,84.92
2018-05-14T09:28:13.240Z,86.51
2018-05-14T09:29:21.891Z,85.74
2018-05-14T09:30:30.807Z,86.12
2018-05-14T09:31:39.452Z,82.37
2018-05-14T09:32:48.099Z,83.33
2018-05-14T09:33:56.753Z,82.46
2018-05-14T09:35:05.409Z,83.91
2018-05-14T09:36:14.052Z,83.23
2018-05-14T09:37:22.776Z,81.3
2018-05-14T09:38:31.356Z,79.86
2018-05-14T09:39:40.295Z,81.3
2018-05-14T09:40:48.944Z,81.7
2018-05-14T09:41:57.594Z,81.35
2018-05-14T09:43:06.514Z,78.75
2018-05-14T09:44:15.166Z,78.65
2018-05-14T09:45:23.831Z,81.06
2018-05-14T09:46:32.470Z,80.48
2018-05-14T09:47:41.125Z,80.48
2018-05-14T09:48:50.295Z,81.45
2018-05-14T09:49:58.957Z,82.41
2018-05-14T09:51:07.687Z,82.26
2018-05-14T09:52:16.338Z,81.68
2018-05-14T09:53:25.246Z,82.26
2018-05-14T09:54:33.906Z,83.61
2018-05-14T09:55:42.828Z,82.83
2018-05-14T09:56:51.484Z,82.74
2018-05-14T09:58:00.123Z,79.17
2018-05-14T09:59:08.776Z,78.02
2018-05-14T10:00:17.704Z,79.66
2018-05-14T10:01:26.356Z,79.36
2018-05-14T10:02:35.009Z,81.01
2018-05-14T10:03:43.649Z,77.63
2018-05-14T10:04:52.303Z,78.88
2018-05-14T10:06:00.949Z,78.5
2018-05-14T10:07:09.610Z,78.59
2018-05-14T10:08:18.247Z,81.62
2018-05-14T10:09:27.167Z,82.39
2018-05-14T10:10:35.810Z,79.89
2018-05-14T10:11:44.473Z,78.63
2018-05-14T10:12:53.111Z,80.85
2018-05-14T10:14:02.105Z,76.71
2018-05-14T10:15:10.751Z,77.09
2018-05-14T10:16:19.409Z,79.69
2018-05-14T10:17:28.058Z,80.08
2018-05-14T10:18:36.705Z,76.32
2018-05-14T10:19:45.357Z,78.92
2018-05-14T10:20:54.008Z,77.86
2018-05-14T10:22:02.666Z,77.67
2018-05-14T10:23:11.314Z,77.33
2018-05-14T10:24:19.968Z,76.26
2018-05-14T10:25:28.608Z,76.55
2018-05-14T10:26:37.270Z,77.81
2018-05-14T10:27:45.917Z,75.68
2018-05-14T10:28:54.572Z,76.55
2018-05-14T10:30:03.212Z,75.78
2018-05-14T10:31:11.873Z,74.43
2018-05-14T10:32:20.522Z,74.47
2018-05-14T10:33:29.175Z,73.6
2018-05-14T10:34:37.817Z,72.73
2018-05-14T10:35:46.475Z,76.1
2018-05-14T10:36:55.130Z,76.2
2018-05-14T10:38:03.784Z,73.5
2018-05-14T10:39:12.436Z,71.19
2018-05-14T10:40:21.338Z,71.67
2018-05-14T10:41:30.516Z,72.83
2018-05-14T10:42:39.172Z,75.76
2018-05-14T10:43:47.813Z,73.06
2018-05-14T10:44:56.477Z,70.74
2018-05-14T10:46:05.384Z,71.7
2018-05-14T10:47:14.042Z,72.77
2018-05-14T10:48:22.947Z,72
2018-05-14T10:49:31.873Z,71.9
2018-05-14T10:50:40.525Z,72.96
2018-05-14T10:51:49.177Z,73.15
2018-05-14T10:52:57.901Z,70.64
2018-05-14T10:54:06.472Z,71.22
2018-05-14T10:55:15.127Z,71.12
2018-05-14T10:56:23.781Z,71.06
2018-05-14T10:57:32.434Z,74.06
2018-05-14T10:58:41.178Z,74.44
2018-05-14T10:59:49.732Z,73.67
2018-05-14T11:00:58.379Z,71.94
2018-05-14T11:02:07.039Z,72.52
2018-05-14T11:03:15.681Z,73.58
2018-05-14T11:04:24.339Z,74.06
2018-05-14T11:05:32.981Z,73.86
2018-05-14T11:06:41.911Z,69.56
2018-05-14T11:07:50.823Z,68.36
2018-05-14T11:08:59.478Z,69.13
2018-05-14T11:10:08.127Z,70.78
2018-05-14T11:11:16.786Z,71.3
2018-05-14T11:12:25.433Z,69.56
2018-05-14T11:13:34.079Z,68.59
2018-05-14T11:14:42.726Z,67.43
2018-05-14T11:15:51.375Z,69.07
2018-05-14T11:17:00.311Z,68.1
2018-05-14T11:18:08.958Z,68.2
2018-05-14T11:19:17.614Z,67.24
2018-05-14T11:20:26.257Z,67.62
2018-05-14T11:21:34.917Z,68.3
2018-05-14T11:22:43.565Z,68.98
2018-05-14T11:23:52.224Z,68.68
2018-05-14T11:25:00.871Z,69.84
2018-05-14T11:26:09.531Z,67.85
2018-05-14T11:27:18.181Z,64.27
2018-05-14T11:28:26.836Z,65.05
2018-05-14T11:29:35.481Z,69.1
2018-05-14T11:30:44.136Z,65.63
2018-05-14T11:31:52.793Z,68.46
2018-05-14T11:33:01.475Z,68.85
2018-05-14T11:34:10.103Z,67.88
2018-05-14T11:35:18.760Z,65.37
2018-05-14T11:36:27.411Z,66.82
2018-05-14T11:37:36.080Z,62.08
2018-05-14T11:38:44.743Z,61.89
2018-05-14T11:39:53.390Z,62.18
2018-05-14T11:41:02.308Z,62.37
2018-05-14T11:42:10.961Z,63.05
2018-05-14T11:43:19.883Z,62.08
2018-05-14T11:44:28.796Z,62.08
2018-05-14T11:45:37.454Z,61.3
2018-05-14T11:46:46.106Z,61.92
2018-05-14T11:47:54.763Z,62.01
2018-05-14T11:49:03.420Z,62.21
2018-05-14T11:50:12.331Z,60.08
2018-05-14T11:51:20.985Z,60.08
2018-05-14T11:52:29.897Z,59.31
2018-05-14T11:53:38.554Z,62.3
2018-05-14T11:54:47.474Z,58.34
2018-05-14T11:55:56.128Z,57.76
2018-05-14T11:57:04.776Z,58.14
2018-05-14T11:58:13.432Z,58.24
2018-05-14T11:59:22.085Z,58.82
2018-05-14T12:00:30.741Z,59.89
2018-05-14T12:01:39.387Z,60.08
2018-05-14T12:02:48.140Z,60.95
2018-05-14T12:03:57.395Z,59.63
2018-05-14T12:05:06.050Z,61.95
2018-05-14T12:06:14.700Z,60.98
2018-05-14T12:07:23.617Z,61.08
2018-05-14T12:08:32.273Z,55.56
2018-05-14T12:09:40.934Z,56.04
2018-05-14T12:10:49.851Z,55.94
2018-05-14T12:11:58.497Z,57.2
2018-05-14T12:13:07.480Z,55.36
2018-05-14T12:14:16.131Z,55.76
2018-05-14T12:15:24.789Z,55.94
2018-05-14T12:16:33.436Z,56.43
2018-05-14T12:17:42.088Z,57.98
2018-05-14T12:18:50.741Z,56.43
2018-05-14T12:19:59.400Z,58.07
2018-05-14T12:21:08.048Z,59.14
2018-05-14T12:22:16.705Z,56.04
2018-05-14T12:23:25.353Z,53.65
2018-05-14T12:24:34.010Z,53.85
2018-05-14T12:25:42.709Z,55.88
2018-05-14T12:26:51.318Z,57.81
2018-05-14T12:27:59.968Z,56.36
2018-05-14T12:29:08.621Z,53.94
2018-05-14T12:30:17.548Z,52.97
2018-05-14T12:31:26.215Z,55.27
2018-05-14T12:32:34.868Z,55.1
2018-05-14T12:33:43.517Z,55.1
2018-05-14T12:34:52.176Z,57.04
2018-05-14T12:36:00.833Z,56.46
2018-05-14T12:37:09.479Z,55.98
2018-05-14T12:38:18.131Z,56.94
2018-05-14T12:39:26.787Z,57.04
2018-05-14T12:40:35.438Z,57.91
2018-05-14T12:41:44.094Z,56.16
2018-05-14T12:42:52.745Z,55.49
2018-05-14T12:44:01.405Z,53.26
2018-05-14T12:45:10.327Z,52.1
2018-05-14T12:46:18.983Z,51.9
2018-05-14T12:47:27.641Z,53.75
2018-05-14T12:48:36.290Z,53.94
2018-05-14T12:49:44.944Z,50.94
2018-05-14T12:50:53.602Z,53.65
2018-05-14T12:52:02.325Z,50.94
2018-05-14T12:53:10.905Z,52.2
2018-05-14T12:54:19.558Z,51.81
2018-05-14T12:55:28.211Z,50.07
2018-05-14T12:56:36.867Z,51.62
2018-05-14T12:57:45.516Z,49.87
2018-05-14T12:58:54.177Z,50.94
2018-05-14T13:00:02.830Z,52
2018-05-14T13:01:11.487Z,52.1
2018-05-14T13:02:20.139Z,53.17
2018-05-14T13:03:28.789Z,51.64
2018-05-14T13:04:37.700Z,53.09
2018-05-14T13:05:46.628Z,52.22
2018-05-14T13:06:55.292Z,52.03
2018-05-14T13:08:04.305Z,54.64
2018-05-14T13:09:12.954Z,55.42
2018-05-14T13:10:21.604Z,54.55
2018-05-14T13:11:30.263Z,49.8
2018-05-14T13:12:39.188Z,51.84
2018-05-14T13:13:47.842Z,52.22
2018-05-14T13:14:56.490Z,52.42
2018-05-14T13:16:05.153Z,53.94
2018-05-14T13:17:13.808Z,51.64
2018-05-14T13:18:22.727Z,49.99
2018-05-14T13:19:31.382Z,49.61
2018-05-14T13:20:40.037Z,51.54
2018-05-14T13:21:48.691Z,55.22
2018-05-14T13:22:57.345Z,56
2018-05-14T13:24:06.005Z,51.06
2018-05-14T13:25:14.685Z,48.44
2018-05-14T13:26:23.305Z,47.38
2018-05-14T13:27:31.956Z,50.09
2018-05-14T13:28:40.614Z,52.42
2018-05-14T13:29:49.261Z,50.96
2018-05-14T13:30:58.178Z,51.06
2018-05-14T13:32:06.939Z,51.25
2018-05-14T13:33:15.490Z,52.42
2018-05-14T13:34:24.142Z,52.32
2018-05-14T13:35:33.149Z,50.67
2018-05-14T13:36:41.710Z,51.96
2018-05-14T13:37:50.478Z,51.09
2018-05-14T13:38:59.030Z,53.22
2018-05-14T13:40:07.943Z,51.96
2018-05-14T13:41:16.601Z,52.83
2018-05-14T13:42:25.250Z,52.93
2018-05-14T13:43:33.907Z,51.47
2018-05-14T13:44:42.557Z,49.44
2018-05-14T13:45:51.214Z,51.28
2018-05-14T13:46:59.859Z,46.82
2018-05-14T13:48:08.674Z,47.79
2018-05-14T13:49:17.315Z,47.98
2018-05-14T13:50:25.973Z,48.95
2018-05-14T13:51:34.618Z,47.02
2018-05-14T13:52:43.282Z,48.74
2018-05-14T13:53:51.932Z,48.18
2018-05-14T13:55:00.588Z,48.06
2018-05-14T13:56:09.231Z,45.07
2018-05-14T13:57:17.924Z,45.56
2018-05-14T13:58:26.553Z,46.33
2018-05-14T13:59:35.209Z,44.68
2018-05-14T14:00:43.867Z,45.85
2018-05-14T14:01:52.508Z,45.37
2018-05-14T14:03:01.168Z,44.3
2018-05-14T14:04:10.086Z,44.98
2018-05-14T14:05:18.747Z,45.27
2018-05-14T14:06:27.392Z,45.37
2018-05-14T14:07:36.050Z,46.62
2018-05-14T14:08:44.697Z,48.27
2018-05-14T14:09:53.360Z,49.44
2018-05-14T14:11:02.006Z,49.54
2018-05-14T14:12:11.200Z,47.2
2018-05-14T14:13:20.384Z,48.08
2018-05-14T14:14:29.046Z,48.08
2018-05-14T14:15:37.700Z,51.18
2018-05-14T14:16:46.348Z,51.47
2018-05-14T14:17:55.270Z,51.28
2018-05-14T14:19:03.921Z,51.67
2018-05-14T14:20:12.583Z,50.7
2018-05-14T14:21:21.230Z,50.6
2018-05-14T14:22:29.887Z,53.12
2018-05-14T14:23:39.159Z,49.82
2018-05-14T14:24:48.529Z,50.6
2018-05-14T14:25:57.179Z,52.34
2018-05-14T14:27:05.836Z,54.58
2018-05-14T14:28:14.482Z,51.28
2018-05-14T14:29:23.146Z,49.32
2018-05-14T14:30:31.795Z,50.38
2018-05-14T14:31:40.451Z,48.06
2018-05-14T14:32:49.438Z,49.61
2018-05-14T14:33:58.024Z,46.7
2018-05-14T14:35:06.955Z,45.15
2018-05-14T14:36:16.096Z,46.51
2018-05-14T14:37:24.672Z,44.59
2018-05-14T14:38:33.336Z,46.33
2018-05-14T14:39:42.251Z,49.05
2018-05-14T14:40:50.910Z,46.89
2018-05-14T14:41:59.589Z,45.27
2018-05-14T14:43:08.219Z,45.47
2018-05-14T14:44:16.866Z,45.75
2018-05-14T14:45:25.795Z,47.6
2018-05-14T14:46:34.440Z,47.69
2018-05-14T14:47:43.103Z,49.54